createdAt,value
2019-01-13T00:00:46.380Z,8.38
2019-01-13T00:01:46.141Z,8.38
2019-01-13T00:02:46.403Z,8.31
2019-01-13T00:03:46.433Z,8.33
2019-01-13T00:04:46.443Z,8.33
2019-01-13T00:05:46.205Z,8.34
2019-01-13T00:06:46.494Z,8.33
2019-01-13T00:07:46.499Z,8.38
2019-01-13T00:08:46.259Z,8.33
2019-01-13T00:09:46.295Z,8.36
2019-01-13T00:10:46.603Z,8.37
2019-01-13T00:11:46.574Z,8.3
2019-01-13T00:12:46.851Z,8.38
2019-01-13T00:13:46.339Z,8.38
2019-01-13T00:14:46.616Z,8.36
2019-01-13T00:15:46.380Z,8.36
2019-01-13T00:16:46.399Z,8.34
2019-01-13T00:17:46.417Z,8.36
2019-01-13T00:18:46.952Z,8.33
2019-01-13T00:19:46.456Z,8.31
2019-01-13T00:20:46.723Z,8.38
2019-01-13T00:21:46.483Z,8.33
2019-01-13T00:22:46.502Z,8.36
2019-01-13T00:23:47.008Z,8.36
2019-01-13T00:24:46.542Z,8.41
2019-01-13T00:25:47.077Z,8.34
2019-01-13T00:26:47.106Z,8.34
2019-01-13T00:27:46.603Z,8.33
2019-01-13T00:28:46.608Z,8.33
2019-01-13T00:29:46.888Z,8.37
2019-01-13T00:30:46.900Z,8.34
2019-01-13T00:31:47.181Z,8.33
2019-01-13T00:32:46.952Z,8.41
2019-01-13T00:33:47.225Z,8.33
2019-01-13T00:34:47.233Z,8.37
2019-01-13T00:35:46.730Z,8.44
2019-01-13T00:36:46.752Z,8.41
2019-01-13T00:37:47.293Z,8.34
2019-01-13T00:38:47.076Z,8.36
2019-01-13T00:39:47.066Z,8.41
2019-01-13T00:40:47.096Z,8.34
2019-01-13T00:41:47.353Z,8.36
2019-01-13T00:42:47.123Z,8.38
2019-01-13T00:43:46.889Z,8.34
2019-01-13T00:44:48.722Z,8.38
2019-01-13T00:45:47.427Z,8.36
2019-01-13T00:46:47.180Z,8.34
2019-01-13T00:47:47.218Z,8.41
2019-01-13T00:48:47.227Z,8.38
2019-01-13T00:49:47.248Z,8.33
2019-01-13T00:50:47.515Z,8.34
2019-01-13T00:51:47.291Z,8.38
2019-01-13T00:52:47.554Z,8.33
2019-01-13T00:53:47.639Z,8.36
2019-01-13T00:54:47.333Z,8.38
2019-01-13T00:55:47.092Z,8.42
2019-01-13T00:56:47.363Z,8.38
2019-01-13T00:57:47.122Z,8.38
2019-01-13T00:58:47.659Z,8.38
2019-01-13T00:59:47.426Z,8.37
2019-01-13T01:00:47.190Z,8.42
2019-01-13T01:01:47.490Z,8.37
2019-01-13T01:02:47.480Z,8.34
2019-01-13T01:03:47.484Z,8.37
2019-01-13T01:04:47.246Z,8.38
2019-01-13T01:05:47.535Z,8.41
2019-01-13T01:06:47.550Z,8.37
2019-01-13T01:07:49.243Z,8.37
2019-01-13T01:08:47.314Z,8.36
2019-01-13T01:09:47.599Z,8.38
2019-01-13T01:10:47.626Z,8.34
2019-01-13T01:11:47.638Z,8.38
2019-01-13T01:12:47.668Z,8.44
2019-01-13T01:13:47.666Z,8.38
2019-01-13T01:14:47.683Z,8.34
2019-01-13T01:15:47.449Z,8.33
2019-01-13T01:16:47.463Z,8.37
2019-01-13T01:17:47.484Z,8.38
2019-01-13T01:18:47.753Z,8.36
2019-01-13T01:19:47.779Z,8.38
2019-01-13T01:20:48.045Z,8.42
2019-01-13T01:21:47.811Z,8.42
2019-01-13T01:22:47.571Z,8.34
2019-01-13T01:23:48.126Z,8.37
2019-01-13T01:24:47.863Z,8.42
2019-01-13T01:25:47.890Z,8.37
2019-01-13T01:26:47.649Z,8.38
2019-01-13T01:27:48.202Z,8.42
2019-01-13T01:28:49.026Z,8.46
2019-01-13T01:29:48.202Z,8.34
2019-01-13T01:30:47.978Z,8.38
2019-01-13T01:31:48.005Z,8.3
2019-01-13T01:32:48.010Z,8.36
2019-01-13T01:33:47.762Z,8.44
2019-01-13T01:34:47.783Z,8.41
2019-01-13T01:35:47.794Z,8.44
2019-01-13T01:36:48.349Z,8.37
2019-01-13T01:37:47.830Z,8.46
2019-01-13T01:38:47.866Z,8.44
2019-01-13T01:39:47.869Z,8.45
2019-01-13T01:40:47.888Z,8.37
2019-01-13T01:41:48.424Z,8.42
2019-01-13T01:42:48.185Z,8.48
2019-01-13T01:43:48.203Z,8.41
2019-01-13T01:44:47.963Z,8.44
2019-01-13T01:45:47.982Z,8.48
2019-01-13T01:46:48.256Z,8.48
2019-01-13T01:47:48.269Z,8.41
2019-01-13T01:48:48.545Z,8.38
2019-01-13T01:49:48.052Z,8.34
2019-01-13T01:50:48.592Z,8.37
2019-01-13T01:51:48.351Z,8.41
2019-01-13T01:52:48.359Z,8.31
2019-01-13T01:53:48.126Z,8.37
2019-01-13T01:54:48.405Z,8.41
2019-01-13T01:55:48.412Z,8.38
2019-01-13T01:56:48.428Z,8.38
2019-01-13T01:57:48.200Z,8.34
2019-01-13T01:58:48.466Z,8.41
2019-01-13T01:59:48.485Z,8.41
2019-01-13T02:00:48.263Z,8.41
2019-01-13T02:01:48.531Z,8.42
2019-01-13T02:02:48.547Z,8.41
2019-01-13T02:03:48.399Z,8.37
2019-01-13T02:04:48.393Z,8.41
2019-01-13T02:05:48.336Z,8.49
2019-01-13T02:06:48.882Z,8.49
2019-01-13T02:07:48.665Z,8.41
2019-01-13T02:08:48.383Z,8.51
2019-01-13T02:09:48.661Z,8.45
2019-01-13T02:10:48.684Z,8.52
2019-01-13T02:11:48.446Z,8.45
2019-01-13T02:12:48.973Z,8.52
2019-01-13T02:13:48.746Z,8.46
2019-01-13T02:14:48.767Z,8.41
2019-01-13T02:15:48.514Z,8.51
2019-01-13T02:16:48.801Z,8.52
2019-01-13T02:17:49.061Z,8.49
2019-01-13T02:18:48.823Z,8.46
2019-01-13T02:19:48.849Z,8.53
2019-01-13T02:20:48.866Z,8.46
2019-01-13T02:21:48.885Z,8.46
2019-01-13T02:22:48.900Z,8.52
2019-01-13T02:23:49.174Z,8.48
2019-01-13T02:24:48.943Z,8.53
2019-01-13T02:25:48.950Z,8.49
2019-01-13T02:26:48.964Z,8.53
2019-01-13T02:27:49.246Z,8.49
2019-01-13T02:28:48.749Z,8.46
2019-01-13T02:29:48.772Z,8.45
2019-01-13T02:30:54.167Z,8.45
2019-01-13T02:31:49.324Z,8.53
2019-01-13T02:32:49.073Z,8.51
2019-01-13T02:33:49.095Z,8.45
2019-01-13T02:34:48.856Z,8.49
2019-01-13T02:35:49.145Z,8.46
2019-01-13T02:36:48.904Z,8.49
2019-01-13T02:37:49.456Z,8.48
2019-01-13T02:38:48.936Z,8.46
2019-01-13T02:39:49.485Z,8.51
2019-01-13T02:40:49.221Z,8.48
2019-01-13T02:41:48.979Z,8.48
2019-01-13T02:42:49.251Z,8.46
2019-01-13T02:43:49.281Z,8.51
2019-01-13T02:44:49.305Z,8.48
2019-01-13T02:45:49.055Z,8.45
2019-01-13T02:46:49.335Z,8.49
2019-01-13T02:47:49.610Z,8.46
2019-01-13T02:48:49.394Z,8.53
2019-01-13T02:49:49.383Z,8.53
2019-01-13T02:50:49.423Z,8.48
2019-01-13T02:51:49.158Z,8.52
2019-01-13T02:52:49.445Z,8.48
2019-01-13T02:53:49.471Z,8.45
2019-01-13T02:54:49.227Z,8.46
2019-01-13T02:55:49.514Z,8.44
2019-01-13T02:56:49.508Z,8.48
2019-01-13T02:57:49.264Z,8.52
2019-01-13T02:58:49.288Z,8.46
2019-01-13T02:59:49.569Z,8.53
2019-01-13T03:00:56.780Z,8.48
2019-01-13T03:01:49.595Z,8.48
2019-01-13T03:02:49.891Z,8.48
2019-01-13T03:03:49.655Z,8.51
2019-01-13T03:04:49.926Z,8.42
2019-01-13T03:05:49.942Z,8.53
2019-01-13T03:06:49.435Z,8.44
2019-01-13T03:07:49.708Z,8.49
2019-01-13T03:08:49.987Z,8.48
2019-01-13T03:09:50.009Z,8.48
2019-01-13T03:10:49.515Z,8.44
2019-01-13T03:11:49.524Z,8.46
2019-01-13T03:12:50.067Z,8.51
2019-01-13T03:13:49.815Z,8.53
2019-01-13T03:14:49.572Z,8.48
2019-01-13T03:15:49.603Z,8.52
2019-01-13T03:16:50.230Z,8.49
2019-01-13T03:17:49.889Z,8.52
2019-01-13T03:18:49.959Z,8.44
2019-01-13T03:19:49.662Z,8.48
2019-01-13T03:20:50.214Z,8.51
2019-01-13T03:21:50.213Z,8.58
2019-01-13T03:22:50.255Z,8.48
2019-01-13T03:23:49.996Z,8.48
2019-01-13T03:24:50.273Z,8.38
2019-01-13T03:25:50.032Z,8.51
2019-01-13T03:26:50.052Z,8.48
2019-01-13T03:27:50.064Z,8.55
2019-01-13T03:28:50.355Z,8.52
2019-01-13T03:29:50.353Z,8.48
2019-01-13T03:30:50.397Z,8.46
2019-01-13T03:31:50.153Z,8.53
2019-01-13T03:32:50.459Z,8.58
2019-01-13T03:33:49.913Z,8.48
2019-01-13T03:34:50.192Z,8.48
2019-01-13T03:35:50.207Z,8.48
2019-01-13T03:36:49.970Z,8.51
2019-01-13T03:37:50.011Z,8.52
2019-01-13T03:38:50.004Z,8.46
2019-01-13T03:39:50.279Z,8.51
2019-01-13T03:40:50.047Z,8.48
2019-01-13T03:41:50.359Z,8.44
2019-01-13T03:42:50.340Z,8.53
2019-01-13T03:43:50.349Z,8.51
2019-01-13T03:44:50.112Z,8.49
2019-01-13T03:45:50.129Z,8.53
2019-01-13T03:46:50.674Z,8.45
2019-01-13T03:47:50.166Z,8.51
2019-01-13T03:48:50.195Z,8.48
2019-01-13T03:49:50.207Z,8.56
2019-01-13T03:50:50.733Z,8.46
2019-01-13T03:51:50.238Z,8.48
2019-01-13T03:52:57.750Z,8.46
2019-01-13T03:53:50.805Z,8.48
2019-01-13T03:54:50.291Z,8.48
2019-01-13T03:55:50.302Z,8.51
2019-01-13T03:56:50.580Z,8.53
2019-01-13T03:57:50.857Z,8.46
2019-01-13T03:58:50.721Z,8.49
2019-01-13T03:59:50.637Z,8.44
2019-01-13T04:00:50.648Z,8.48
2019-01-13T04:01:50.942Z,8.49
2019-01-13T04:02:50.691Z,8.46
2019-01-13T04:03:50.446Z,8.48
2019-01-13T04:04:50.470Z,8.51
2019-01-13T04:05:50.476Z,8.48
2019-01-13T04:06:50.753Z,8.45
2019-01-13T04:07:50.778Z,8.48
2019-01-13T04:08:51.068Z,8.44
2019-01-13T04:09:50.807Z,8.53
2019-01-13T04:10:50.573Z,8.51
2019-01-13T04:11:50.604Z,8.51
2019-01-13T04:12:50.895Z,8.46
2019-01-13T04:13:50.887Z,8.46
2019-01-13T04:14:50.667Z,8.44
2019-01-13T04:15:50.657Z,8.41
2019-01-13T04:16:50.675Z,8.49
2019-01-13T04:17:51.221Z,8.48
2019-01-13T04:18:50.752Z,8.42
2019-01-13T04:19:51.254Z,8.46
2019-01-13T04:20:50.746Z,8.49
2019-01-13T04:21:51.305Z,8.46
2019-01-13T04:22:50.798Z,8.44
2019-01-13T04:23:51.333Z,8.46
2019-01-13T04:24:50.853Z,8.42
2019-01-13T04:25:51.372Z,8.45
2019-01-13T04:26:51.126Z,8.46
2019-01-13T04:27:51.395Z,8.46
2019-01-13T04:28:51.177Z,8.46
2019-01-13T04:29:51.176Z,8.48
2019-01-13T04:30:50.936Z,8.46
2019-01-13T04:31:51.210Z,8.37
2019-01-13T04:32:51.224Z,8.51
2019-01-13T04:33:51.256Z,8.46
2019-01-13T04:34:50.997Z,8.42
2019-01-13T04:35:51.531Z,8.44
2019-01-13T04:36:51.290Z,8.46
2019-01-13T04:37:51.314Z,8.64
2019-01-13T04:38:51.069Z,8.55
2019-01-13T04:39:51.607Z,8.52
2019-01-13T04:40:51.364Z,8.52
2019-01-13T04:41:51.380Z,8.49
2019-01-13T04:42:51.134Z,8.52
2019-01-13T04:43:51.417Z,8.58
2019-01-13T04:44:51.176Z,8.48
2019-01-13T04:45:51.456Z,8.53
2019-01-13T04:46:51.737Z,8.6
2019-01-13T04:47:51.229Z,8.52
2019-01-13T04:48:51.252Z,8.58
2019-01-13T04:49:51.285Z,8.53
2019-01-13T04:50:51.560Z,8.58
2019-01-13T04:51:51.303Z,8.61
2019-01-13T04:52:51.585Z,8.52
2019-01-13T04:53:51.334Z,8.51
2019-01-13T04:54:51.614Z,8.61
2019-01-13T04:55:51.372Z,8.55
2019-01-13T04:56:51.914Z,8.6
2019-01-13T04:57:51.676Z,8.56
2019-01-13T04:58:51.440Z,8.52
2019-01-13T04:59:51.714Z,8.55
2019-01-13T05:00:51.458Z,8.55
2019-01-13T05:01:51.746Z,8.55
2019-01-13T05:02:51.751Z,8.64
2019-01-13T05:03:51.769Z,8.52
2019-01-13T05:04:51.799Z,8.64
2019-01-13T05:05:51.816Z,8.58
2019-01-13T05:06:52.101Z,8.61
2019-01-13T05:07:51.583Z,8.52
2019-01-13T05:08:51.876Z,8.61
2019-01-13T05:09:52.144Z,8.63
2019-01-13T05:10:51.639Z,8.56
2019-01-13T05:11:51.934Z,8.56
2019-01-13T05:12:51.693Z,8.51
2019-01-13T05:13:51.955Z,8.69
2019-01-13T05:14:51.708Z,8.53
2019-01-13T05:15:51.729Z,8.63
2019-01-13T05:16:51.751Z,8.58
2019-01-13T05:17:52.032Z,8.69
2019-01-13T05:18:52.043Z,8.6
2019-01-13T05:19:51.809Z,8.58
2019-01-13T05:20:51.823Z,8.63
2019-01-13T05:21:51.833Z,8.69
2019-01-13T05:22:52.384Z,8.63
2019-01-13T05:23:52.126Z,8.56
2019-01-13T05:24:52.422Z,8.61
2019-01-13T05:25:52.430Z,8.61
2019-01-13T05:26:52.207Z,8.67
2019-01-13T05:27:51.943Z,8.55
2019-01-13T05:28:51.966Z,8.63
2019-01-13T05:29:52.240Z,8.61
2019-01-13T05:30:52.258Z,8.58
2019-01-13T05:31:52.272Z,8.55
2019-01-13T05:32:52.299Z,8.61
2019-01-13T05:33:52.311Z,8.66
2019-01-13T05:34:52.391Z,8.61
2019-01-13T05:35:52.616Z,8.64
2019-01-13T05:36:52.369Z,8.61
2019-01-13T05:37:52.384Z,8.56
2019-01-13T05:38:52.396Z,8.6
2019-01-13T05:39:52.413Z,8.6
2019-01-13T05:40:52.434Z,8.64
2019-01-13T05:41:52.717Z,8.64
2019-01-13T05:42:52.474Z,8.55
2019-01-13T05:43:52.226Z,8.64
2019-01-13T05:44:52.245Z,8.63
2019-01-13T05:45:52.516Z,8.63
2019-01-13T05:46:52.563Z,8.7
2019-01-13T05:47:52.558Z,8.63
2019-01-13T05:48:52.313Z,8.64
2019-01-13T05:49:52.844Z,8.61
2019-01-13T05:50:52.343Z,8.63
2019-01-13T05:51:52.635Z,8.64
2019-01-13T05:52:52.380Z,8.64
2019-01-13T05:53:52.912Z,8.64
2019-01-13T05:54:52.416Z,8.63
2019-01-13T05:55:52.696Z,8.61
2019-01-13T05:56:52.466Z,8.69
2019-01-13T05:57:52.998Z,8.63
2019-01-13T05:58:52.746Z,8.73
2019-01-13T05:59:53.018Z,8.74
2019-01-13T06:00:52.520Z,8.67
2019-01-13T06:01:54.029Z,8.61
2019-01-13T06:02:52.562Z,8.6
2019-01-13T06:03:52.836Z,8.64
2019-01-13T06:04:52.595Z,8.69
2019-01-13T06:05:52.877Z,8.7
2019-01-13T06:06:52.636Z,8.66
2019-01-13T06:07:52.904Z,8.66
2019-01-13T06:08:52.917Z,8.66
2019-01-13T06:09:52.945Z,8.7
2019-01-13T06:10:52.973Z,8.67
2019-01-13T06:11:53.243Z,8.7
2019-01-13T06:12:53.016Z,8.73
2019-01-13T06:13:52.757Z,8.66
2019-01-13T06:14:52.774Z,8.64
2019-01-13T06:15:53.327Z,8.69
2019-01-13T06:16:53.069Z,8.67
2019-01-13T06:17:53.095Z,8.66
2019-01-13T06:18:52.843Z,8.66
2019-01-13T06:19:52.866Z,8.7
2019-01-13T06:20:53.134Z,8.67
2019-01-13T06:21:53.416Z,8.66
2019-01-13T06:22:52.917Z,8.73
2019-01-13T06:23:52.935Z,8.74
2019-01-13T06:24:52.956Z,8.7
2019-01-13T06:25:52.968Z,8.64
2019-01-13T06:26:53.257Z,8.73
2019-01-13T06:27:53.531Z,8.69
2019-01-13T06:28:53.278Z,8.66
2019-01-13T06:29:53.305Z,8.71
2019-01-13T06:30:53.570Z,8.7
2019-01-13T06:31:58.594Z,8.67
2019-01-13T06:32:53.095Z,8.71
2019-01-13T06:33:53.379Z,8.67
2019-01-13T06:34:53.385Z,8.67
2019-01-13T06:35:53.672Z,8.61
2019-01-13T06:36:53.424Z,8.7
2019-01-13T06:37:53.440Z,8.66
2019-01-13T06:38:53.456Z,8.69
2019-01-13T06:39:53.734Z,8.74
2019-01-13T06:40:53.281Z,8.69
2019-01-13T06:41:53.770Z,8.69
2019-01-13T06:42:53.277Z,8.7
2019-01-13T06:43:53.293Z,8.67
2019-01-13T06:44:53.571Z,8.64
2019-01-13T06:45:53.602Z,8.74
2019-01-13T06:46:53.355Z,8.69
2019-01-13T06:47:53.624Z,8.67
2019-01-13T06:48:53.378Z,8.7
2019-01-13T06:49:53.405Z,8.66
2019-01-13T06:50:53.410Z,8.7
2019-01-13T06:51:53.450Z,8.67
2019-01-13T06:52:53.720Z,8.7
2019-01-13T06:53:53.469Z,8.7
2019-01-13T06:54:53.743Z,8.67
2019-01-13T06:55:54.022Z,8.74
2019-01-13T06:56:53.781Z,8.67
2019-01-13T06:57:53.804Z,8.73
2019-01-13T06:58:53.807Z,8.73
2019-01-13T06:59:53.834Z,8.71
2019-01-13T07:00:53.847Z,8.69
2019-01-13T07:01:54.125Z,8.71
2019-01-13T07:02:53.883Z,8.67
2019-01-13T07:03:53.643Z,8.71
2019-01-13T07:04:53.936Z,8.7
2019-01-13T07:05:53.937Z,8.73
2019-01-13T07:06:53.958Z,8.71
2019-01-13T07:07:54.244Z,8.73
2019-01-13T07:08:53.731Z,8.71
2019-01-13T07:09:54.278Z,8.71
2019-01-13T07:10:53.780Z,8.7
2019-01-13T07:11:54.044Z,8.78
2019-01-13T07:12:54.072Z,8.78
2019-01-13T07:13:53.822Z,8.69
2019-01-13T07:14:54.508Z,8.79
2019-01-13T07:15:54.141Z,8.7
2019-01-13T07:16:54.399Z,8.73
2019-01-13T07:17:53.892Z,8.73
2019-01-13T07:18:53.919Z,8.67
2019-01-13T07:19:53.937Z,8.78
2019-01-13T07:20:53.954Z,8.71
2019-01-13T07:21:54.240Z,8.69
2019-01-13T07:22:53.988Z,8.78
2019-01-13T07:23:54.264Z,8.71
2019-01-13T07:24:54.300Z,8.73
2019-01-13T07:25:54.553Z,8.76
2019-01-13T07:26:54.591Z,8.73
2019-01-13T07:27:54.084Z,8.78
2019-01-13T07:28:54.354Z,8.79
2019-01-13T07:29:54.122Z,8.74
2019-01-13T07:30:54.134Z,8.78
2019-01-13T07:31:54.147Z,8.74
2019-01-13T07:32:54.167Z,8.76
2019-01-13T07:33:54.434Z,8.79
2019-01-13T07:34:54.461Z,8.78
2019-01-13T07:35:54.474Z,8.79
2019-01-13T07:36:54.500Z,8.78
2019-01-13T07:37:54.243Z,8.74
2019-01-13T07:38:54.528Z,8.7
2019-01-13T07:39:54.281Z,8.74
2019-01-13T07:40:54.305Z,8.78
2019-01-13T07:41:54.860Z,8.76
2019-01-13T07:42:54.333Z,8.74
2019-01-13T07:43:54.887Z,8.81
2019-01-13T07:44:54.376Z,8.76
2019-01-13T07:45:54.392Z,8.78
2019-01-13T07:46:54.744Z,8.78
2019-01-13T07:47:54.434Z,8.79
2019-01-13T07:48:54.459Z,8.84
2019-01-13T07:49:54.982Z,8.78
2019-01-13T07:50:54.744Z,8.78
2019-01-13T07:51:54.503Z,8.81
2019-01-13T07:52:55.035Z,8.79
2019-01-13T07:53:54.799Z,8.84
2019-01-13T07:54:55.946Z,8.81
2019-01-13T07:55:54.830Z,8.79
2019-01-13T07:56:54.867Z,8.81
2019-01-13T07:57:54.868Z,8.81
2019-01-13T07:58:54.880Z,8.78
2019-01-13T07:59:54.641Z,8.88
2019-01-13T08:00:54.931Z,8.82
2019-01-13T08:01:54.951Z,8.84
2019-01-13T08:02:54.967Z,8.79
2019-01-13T08:03:54.979Z,8.73
2019-01-13T08:04:54.996Z,8.79
2019-01-13T08:05:55.276Z,8.85
2019-01-13T08:06:55.037Z,8.87
2019-01-13T08:07:55.050Z,8.84
2019-01-13T08:08:55.071Z,8.91
2019-01-13T08:09:55.090Z,8.87
2019-01-13T08:10:55.096Z,8.71
2019-01-13T08:11:55.120Z,8.89
2019-01-13T08:12:55.132Z,8.84
2019-01-13T08:13:55.157Z,8.89
2019-01-13T08:14:54.909Z,8.78
2019-01-13T08:15:55.442Z,8.89
2019-01-13T08:16:55.207Z,8.91
2019-01-13T08:17:55.231Z,8.87
2019-01-13T08:18:55.249Z,8.89
2019-01-13T08:19:55.006Z,8.88
2019-01-13T08:20:55.287Z,8.91
2019-01-13T08:21:55.307Z,8.92
2019-01-13T08:22:55.055Z,8.91
2019-01-13T08:23:55.082Z,8.88
2019-01-13T08:24:55.360Z,8.89
2019-01-13T08:25:55.128Z,8.88
2019-01-13T08:26:55.384Z,8.89
2019-01-13T08:27:55.411Z,8.88
2019-01-13T08:28:55.179Z,8.91
2019-01-13T08:29:55.701Z,8.85
2019-01-13T08:30:55.473Z,8.89
2019-01-13T08:31:55.733Z,8.95
2019-01-13T08:32:55.769Z,8.88
2019-01-13T08:33:55.787Z,8.94
2019-01-13T08:34:55.533Z,8.91
2019-01-13T08:35:55.284Z,8.97
2019-01-13T08:36:55.304Z,8.91
2019-01-13T08:37:55.856Z,8.95
2019-01-13T08:38:55.598Z,8.92
2019-01-13T08:39:55.357Z,9
2019-01-13T08:40:55.631Z,8.97
2019-01-13T08:41:55.399Z,8.95
2019-01-13T08:42:55.681Z,8.97
2019-01-13T08:43:55.691Z,8.94
2019-01-13T08:44:55.703Z,8.95
2019-01-13T08:45:55.522Z,8.97
2019-01-13T08:46:55.787Z,8.97
2019-01-13T08:47:55.506Z,8.99
2019-01-13T08:48:56.050Z,9
2019-01-13T08:49:55.816Z,8.92
2019-01-13T08:50:55.555Z,8.99
2019-01-13T08:51:55.841Z,9
2019-01-13T08:52:55.859Z,8.94
2019-01-13T08:53:55.625Z,9
2019-01-13T08:54:55.898Z,8.97
2019-01-13T08:55:55.920Z,8.94
2019-01-13T08:56:55.935Z,8.99
2019-01-13T08:57:55.686Z,8.99
2019-01-13T08:58:55.970Z,9.02
2019-01-13T08:59:55.988Z,9.08
2019-01-13T09:00:56.055Z,8.95
2019-01-13T09:01:55.756Z,8.92
2019-01-13T09:02:56.042Z,8.92
2019-01-13T09:03:56.325Z,9.02
2019-01-13T09:04:56.069Z,9.11
2019-01-13T09:05:56.135Z,9.08
2019-01-13T09:06:55.853Z,9.04
2019-01-13T09:07:55.873Z,9.04
2019-01-13T09:08:55.887Z,9.06
2019-01-13T09:09:56.163Z,9.08
2019-01-13T09:10:56.175Z,9.06
2019-01-13T09:11:56.196Z,9.1
2019-01-13T09:13:01.294Z,9
2019-01-13T09:13:56.245Z,9.11
2019-01-13T09:14:56.254Z,9.06
2019-01-13T09:15:56.263Z,9.04
2019-01-13T09:16:56.025Z,9.08
2019-01-13T09:17:56.319Z,9.1
2019-01-13T09:18:56.060Z,9.19
2019-01-13T09:19:56.355Z,9.06
2019-01-13T09:20:56.098Z,9.14
2019-01-13T09:21:56.116Z,9.14
2019-01-13T09:22:56.400Z,9.14
2019-01-13T09:23:56.420Z,9.16
2019-01-13T09:24:56.426Z,9.21
2019-01-13T09:25:56.502Z,9.26
2019-01-13T09:26:56.214Z,9.26
2019-01-13T09:27:56.750Z,9.18
2019-01-13T09:28:56.768Z,9.21
2019-01-13T09:29:56.269Z,9.14
2019-01-13T09:30:56.539Z,9.18
2019-01-13T09:31:56.667Z,9.14
2019-01-13T09:32:56.581Z,9.14
2019-01-13T09:33:56.847Z,9.14
2019-01-13T09:34:56.607Z,9.19
2019-01-13T09:35:56.380Z,9.25
2019-01-13T09:36:56.389Z,9.28
2019-01-13T09:37:56.415Z,9.21
2019-01-13T09:38:56.420Z,9.29
2019-01-13T09:39:56.955Z,9.29
2019-01-13T09:40:56.990Z,9.23
2019-01-13T09:41:56.471Z,9.22
2019-01-13T09:42:57.038Z,9.25
2019-01-13T09:43:56.516Z,9.25
2019-01-13T09:44:57.051Z,9.23
2019-01-13T09:45:56.566Z,9.29
2019-01-13T09:46:56.855Z,9.28
2019-01-13T09:47:56.840Z,9.21
2019-01-13T09:48:56.862Z,9.25
2019-01-13T09:49:56.620Z,9.34
2019-01-13T09:50:56.926Z,9.25
2019-01-13T09:51:56.915Z,9.29
2019-01-13T09:52:57.193Z,9.36
2019-01-13T09:53:57.236Z,9.34
2019-01-13T09:54:56.711Z,9.32
2019-01-13T09:55:56.992Z,9.29
2019-01-13T09:56:57.007Z,9.29
2019-01-13T09:57:57.035Z,9.32
2019-01-13T09:58:56.785Z,9.39
2019-01-13T09:59:56.801Z,9.36
2019-01-13T10:00:56.831Z,9.34
2019-01-13T10:01:57.103Z,9.36
2019-01-13T10:02:57.123Z,9.37
2019-01-13T10:03:57.133Z,9.36
2019-01-13T10:04:56.897Z,9.37
2019-01-13T10:05:56.919Z,9.34
2019-01-13T10:06:57.205Z,9.4
2019-01-13T10:07:56.942Z,9.4
2019-01-13T10:08:57.225Z,9.4
2019-01-13T10:09:56.987Z,9.4
2019-01-13T10:10:57.328Z,9.36
2019-01-13T10:11:57.031Z,9.37
2019-01-13T10:12:57.295Z,9.32
2019-01-13T10:13:57.569Z,9.46
2019-01-13T10:14:57.592Z,9.37
2019-01-13T10:15:57.658Z,9.47
2019-01-13T10:16:57.374Z,9.48
2019-01-13T10:17:57.129Z,9.43
2019-01-13T10:18:57.405Z,9.39
2019-01-13T10:19:57.177Z,9.44
2019-01-13T10:20:58.614Z,9.46
2019-01-13T10:21:57.726Z,9.41
2019-01-13T10:22:57.746Z,9.46
2019-01-13T10:23:57.495Z,9.44
2019-01-13T10:24:57.509Z,9.41
2019-01-13T10:25:57.552Z,9.41
2019-01-13T10:26:57.298Z,9.39
2019-01-13T10:27:57.841Z,9.55
2019-01-13T10:28:57.336Z,9.48
2019-01-13T10:29:57.611Z,9.4
2019-01-13T10:31:03.087Z,9.46
2019-01-13T10:31:57.646Z,9.47
2019-01-13T10:32:59.616Z,9.47
2019-01-13T10:33:57.692Z,9.43
2019-01-13T10:34:57.694Z,9.46
2019-01-13T10:35:57.986Z,9.48
2019-01-13T10:36:58.019Z,9.48
2019-01-13T10:37:57.496Z,9.55
2019-01-13T10:38:57.769Z,9.48
2019-01-13T10:39:57.535Z,9.56
2019-01-13T10:40:58.065Z,9.51
2019-01-13T10:41:57.825Z,9.48
2019-01-13T10:42:57.587Z,9.55
2019-01-13T10:43:57.858Z,9.62
2019-01-13T10:44:57.878Z,9.54
2019-01-13T10:45:57.640Z,9.56
2019-01-13T10:46:58.184Z,9.56
2019-01-13T10:47:57.689Z,9.51
2019-01-13T10:48:57.705Z,9.51
2019-01-13T10:49:57.986Z,9.65
2019-01-13T10:50:57.729Z,9.61
2019-01-13T10:51:58.061Z,9.64
2019-01-13T10:52:57.763Z,9.61
2019-01-13T10:53:57.782Z,9.73
2019-01-13T10:54:58.070Z,9.69
2019-01-13T10:55:58.349Z,9.74
2019-01-13T10:56:58.417Z,9.72
2019-01-13T10:57:58.116Z,9.74
2019-01-13T10:58:58.148Z,9.61
2019-01-13T10:59:58.171Z,9.61
2019-01-13T11:00:57.912Z,9.64
2019-01-13T11:01:57.944Z,9.68
2019-01-13T11:03:04.535Z,9.68
2019-01-13T11:03:58.226Z,9.62
2019-01-13T11:04:58.510Z,9.65
2019-01-13T11:05:58.519Z,9.68
2019-01-13T11:06:58.561Z,9.66
2019-01-13T11:07:58.049Z,9.65
2019-01-13T11:08:58.579Z,9.69
2019-01-13T11:09:58.339Z,9.73
2019-01-13T11:10:58.095Z,9.73
2019-01-13T11:11:58.118Z,9.69
2019-01-13T11:12:58.394Z,9.73
2019-01-13T11:13:58.154Z,9.72
2019-01-13T11:14:58.178Z,9.73
2019-01-13T11:15:58.456Z,9.68
2019-01-13T11:16:58.216Z,9.72
2019-01-13T11:17:58.487Z,9.69
2019-01-13T11:18:59.654Z,9.68
2019-01-13T11:19:58.262Z,9.66
2019-01-13T11:20:58.796Z,9.73
2019-01-13T11:21:58.553Z,9.64
2019-01-13T11:22:58.568Z,9.72
2019-01-13T11:23:58.342Z,9.68
2019-01-13T11:24:58.635Z,9.73
2019-01-13T11:25:58.637Z,9.76
2019-01-13T11:26:58.407Z,9.69
2019-01-13T11:27:58.406Z,9.76
2019-01-13T11:28:58.430Z,9.77
2019-01-13T11:29:58.708Z,9.73
2019-01-13T11:30:58.721Z,9.77
2019-01-13T11:31:58.479Z,9.77
2019-01-13T11:32:58.500Z,9.76
2019-01-13T11:33:58.786Z,9.77
2019-01-13T11:34:59.076Z,9.82
2019-01-13T11:35:58.810Z,9.72
2019-01-13T11:36:58.861Z,9.76
2019-01-13T11:37:59.112Z,9.73
2019-01-13T11:38:58.867Z,9.77
2019-01-13T11:39:58.628Z,9.86
2019-01-13T11:40:58.651Z,9.74
2019-01-13T11:41:58.668Z,9.8
2019-01-13T11:42:58.945Z,9.82
2019-01-13T11:43:58.966Z,9.76
2019-01-13T11:44:59.255Z,9.84
2019-01-13T11:45:58.999Z,9.74
2019-01-13T11:46:58.759Z,9.74
2019-01-13T11:47:58.779Z,9.79
2019-01-13T11:48:59.049Z,9.76
2019-01-13T11:49:59.070Z,9.79
2019-01-13T11:50:59.341Z,9.79
2019-01-13T11:51:59.112Z,9.79
2019-01-13T11:52:59.181Z,9.76
2019-01-13T11:53:59.142Z,9.79
2019-01-13T11:54:59.162Z,9.76
2019-01-13T11:55:59.193Z,9.83
2019-01-13T11:56:59.475Z,9.8
2019-01-13T11:57:59.486Z,9.86
2019-01-13T11:58:58.991Z,9.89
2019-01-13T11:59:59.518Z,9.86
2019-01-13T12:00:59.023Z,9.83
2019-01-13T12:01:59.553Z,9.86
2019-01-13T12:03:06.318Z,9.86
2019-01-13T12:03:59.075Z,9.92
2019-01-13T12:04:59.349Z,9.8
2019-01-13T12:05:59.115Z,9.87
2019-01-13T12:06:59.666Z,9.92
2019-01-13T12:07:59.462Z,9.83
2019-01-13T12:08:59.417Z,9.87
2019-01-13T12:09:59.184Z,9.84
2019-01-13T12:10:59.455Z,9.89
2019-01-13T12:11:59.217Z,9.86
2019-01-13T12:12:59.501Z,9.89
2019-01-13T12:13:59.768Z,9.89
2019-01-13T12:14:59.280Z,9.87
2019-01-13T12:15:59.820Z,9.87
2019-01-13T12:16:59.314Z,9.89
2019-01-13T12:17:59.333Z,9.83
2019-01-13T12:19:00.774Z,9.91
2019-01-13T12:19:59.905Z,9.89
2019-01-13T12:20:59.651Z,9.83
2019-01-13T12:22:00.680Z,9.91
2019-01-13T12:22:59.885Z,9.91
2019-01-13T12:23:59.696Z,9.86
2019-01-13T12:24:59.466Z,9.89
2019-01-13T12:25:59.998Z,9.92
2019-01-13T12:26:59.760Z,9.92
2019-01-13T12:27:59.835Z,9.91
2019-01-13T12:28:59.795Z,9.91
2019-01-13T12:29:59.821Z,9.87
2019-01-13T12:30:59.822Z,9.89
2019-01-13T12:31:59.591Z,9.83
2019-01-13T12:32:59.605Z,9.95
2019-01-13T12:33:59.950Z,9.89
2019-01-13T12:35:00.165Z,9.94
2019-01-13T12:35:59.921Z,9.94
2019-01-13T12:36:59.956Z,9.92
2019-01-13T12:37:59.973Z,9.95
2019-01-13T12:38:59.725Z,9.98
2019-01-13T12:40:00.009Z,9.95
2019-01-13T12:41:00.197Z,9.92
2019-01-13T12:42:00.042Z,9.89
2019-01-13T12:42:59.845Z,9.99
2019-01-13T12:44:00.324Z,9.97
2019-01-13T12:45:00.095Z,9.92
2019-01-13T12:46:00.112Z,9.87
2019-01-13T12:47:00.380Z,9.94
2019-01-13T12:48:00.473Z,9.91
2019-01-13T12:49:00.169Z,9.92
2019-01-13T12:49:59.919Z,9.89
2019-01-13T12:51:00.194Z,9.89
2019-01-13T12:52:00.235Z,9.91
2019-01-13T12:52:59.983Z,9.87
2019-01-13T12:54:00.511Z,9.87
2019-01-13T12:55:00.307Z,9.98
2019-01-13T12:56:00.028Z,9.92
2019-01-13T12:57:00.305Z,9.95
2019-01-13T12:58:00.585Z,9.92
2019-01-13T12:59:00.089Z,9.87
2019-01-13T13:00:00.377Z,9.87
2019-01-13T13:01:00.129Z,9.94
2019-01-13T13:02:00.685Z,9.94
2019-01-13T13:03:01.926Z,9.92
2019-01-13T13:04:00.433Z,9.94
2019-01-13T13:05:00.207Z,9.89
2019-01-13T13:06:00.225Z,9.97
2019-01-13T13:07:00.767Z,9.94
2019-01-13T13:08:00.266Z,9.98
2019-01-13T13:09:00.323Z,9.91
2019-01-13T13:10:00.563Z,9.95
2019-01-13T13:11:00.310Z,10.02
2019-01-13T13:12:00.585Z,9.95
2019-01-13T13:13:00.352Z,9.97
2019-01-13T13:14:00.629Z,9.97
2019-01-13T13:15:00.654Z,9.98
2019-01-13T13:16:00.658Z,9.94
2019-01-13T13:17:00.428Z,9.94
2019-01-13T13:18:00.451Z,9.94
2019-01-13T13:19:00.466Z,9.97
2019-01-13T13:20:00.838Z,10.01
2019-01-13T13:21:00.501Z,9.91